sensor_id;sensor_type;location;lat;lon;timestamp;temperature;humidity
1468;DHT22;727;48.892;9.544;2024-01-15T00:00:59;-1.50;99.90
1468;DHT22;727;48.892;9.544;2024-01-15T00:03:25;-1.40;99.90
1468;DHT22;727;48.892;9.544;2024-01-15T00:05:52;-1.50;99.90
1468;DHT22;727;48.892;9.544;2024-01-15T00:08:19;-1.50;99.90
1468;DHT22;727;48.892;9.544;2024-01-15T00:10:46;-1.40;99.90
1468;DHT22;727;48.892;9.544;2024-01-15T00:13:12;-1.40;99.90
1468;DHT22;727;48.892;9.544;2024-01-15T00:15:40;-1.40;99.90
1468;DHT22;727;48.892;9.544;2024-01-15T00:18:07;-1.50;99.90
1468;DHT22;727;48.892;9.544;2024-01-15T00:20:34;-1.40;99.90
1468;DHT22;727;48.892;9.544;2024-01-15T00:23:01;-1.40;99.90
1468;DHT22;727;48.892;9.544;2024-01-15T00:25:27;-1.40;99.90
1468;DHT22;727;48.892;9.544;2024-01-15T00:27:54;-1.40;99.90
1468;DHT22;727;48.892;9.544;2024-01-15T00:30:21;-1.40;99.90
1468;DHT22;727;48.892;9.544;2024-01-15T00:32:49;-1.40;99.90
1468;DHT22;727;48.892;9.544;2024-01-15T00:35:16;-1.40;99.90
1468;DHT22;727;48.892;9.544;2024-01-15T00:37:42;-1.40;99.90
1468;DHT22;727;48.892;9.544;2024-01-15T00:40:09;-1.40;99.90
1468;DHT22;727;48.892;9.544;2024-01-15T00:42:36;-1.40;99.90
1468;DHT22;727;48.892;9.544;2024-01-15T00:45:04;-1.40;99.90
1468;DHT22;727;48.892;9.544;2024-01-15T00:47:33;-1.40;99.90
1468;DHT22;727;48.892;9.544;2024-01-15T00:50:04;-1.40;99.90
1468;DHT22;727;48.892;9.544;2024-01-15T00:52:33;-1.30;99.90
1468;DHT22;727;48.892;9.544;2024-01-15T00:55:00;-1.30;99.90
1468;DHT22;727;48.892;9.544;2024-01-15T00:57:27;-1.30;99.90
1468;DHT22;727;48.892;9.544;2024-01-15T00:59:54;-1.20;99.90
1468;DHT22;727;48.892;9.544;2024-01-15T01:02:21;-1.10;99.90
1468;DHT22;727;48.892;9.544;2024-01-15T01:04:47;-1.20;99.90
1468;DHT22;727;48.892;9.544;2024-01-15T01:07:15;-1.10;99.90
1468;DHT22;727;48.892;9.544;2024-01-15T01:09:42;-1.10;99.90
1468;DHT22;727;48.892;9.544;2024-01-15T01:12:09;-1.10;99.90
1468;DHT22;727;48.892;9.544;2024-01-15T01:14:37;-1.20;99.90
1468;DHT22;727;48.892;9.544;2024-01-15T01:17:04;-1.30;99.90
1468;DHT22;727;48.892;9.544;2024-01-15T01:19:30;-1.20;99.90
1468;DHT22;727;48.892;9.544;2024-01-15T01:21:57;-1.30;99.90
1468;DHT22;727;48.892;9.544;2024-01-15T01:24:27;-1.30;99.90
1468;DHT22;727;48.892;9.544;2024-01-15T01:26:54;-1.30;99.90
1468;DHT22;727;48.892;9.544;2024-01-15T01:29:21;-1.30;99.90
1468;DHT22;727;48.892;9.544;2024-01-15T01:31:48;-1.30;99.90
1468;DHT22;727;48.892;9.544;2024-01-15T01:34:16;-1.30;99.90
1468;DHT22;727;48.892;9.544;2024-01-15T01:36:43;-1.30;99.90
1468;DHT22;727;48.892;9.544;2024-01-15T01:39:09;-1.30;99.90
1468;DHT22;727;48.892;9.544;2024-01-15T01:41:42;-1.30;99.90
1468;DHT22;727;48.892;9.544;2024-01-15T01:44:09;-1.30;99.90
1468;DHT22;727;48.892;9.544;2024-01-15T01:46:36;-1.30;99.90
1468;DHT22;727;48.892;9.544;2024-01-15T01:49:06;-1.30;99.90
1468;DHT22;727;48.892;9.544;2024-01-15T01:51:38;-1.30;99.90
1468;DHT22;727;48.892;9.544;2024-01-15T01:54:11;-1.30;99.90
1468;DHT22;727;48.892;9.544;2024-01-15T01:56:43;-1.40;99.90
1468;DHT22;727;48.892;9.544;2024-01-15T01:59:21;-1.40;99.90
1468;DHT22;727;48.892;9.544;2024-01-15T02:01:49;-1.40;99.90
1468;DHT22;727;48.892;9.544;2024-01-15T02:04:17;-1.40;99.90
1468;DHT22;727;48.892;9.544;2024-01-15T02:06:53;-1.30;99.90
1468;DHT22;727;48.892;9.544;2024-01-15T02:09:27;-1.30;99.90
1468;DHT22;727;48.892;9.544;2024-01-15T02:11:59;-1.20;99.90
1468;DHT22;727;48.892;9.544;2024-01-15T02:14:29;-1.20;99.90
1468;DHT22;727;48.892;9.544;2024-01-15T02:17:01;-1.20;99.90
1468;DHT22;727;48.892;9.544;2024-01-15T02:19:28;-1.30;99.90
1468;DHT22;727;48.892;9.544;2024-01-15T02:22:08;-1.20;99.90
1468;DHT22;727;48.892;9.544;2024-01-15T02:24:36;-1.30;99.90
1468;DHT22;727;48.892;9.544;2024-01-15T02:27:04;-1.30;99.90
1468;DHT22;727;48.892;9.544;2024-01-15T02:29:31;-1.30;99.90
1468;DHT22;727;48.892;9.544;2024-01-15T02:31:57;-1.30;99.90
1468;DHT22;727;48.892;9.544;2024-01-15T02:34:24;-1.30;99.90
1468;DHT22;727;48.892;9.544;2024-01-15T02:36:51;-1.30;99.90
1468;DHT22;727;48.892;9.544;2024-01-15T02:39:20;-1.40;99.90
1468;DHT22;727;48.892;9.544;2024-01-15T02:41:48;-1.30;99.90
1468;DHT22;727;48.892;9.544;2024-01-15T02:44:15;-1.40;99.90
1468;DHT22;727;48.892;9.544;2024-01-15T02:46:42;-1.40;99.90
1468;DHT22;727;48.892;9.544;2024-01-15T02:49:08;-1.40;99.90
1468;DHT22;727;48.892;9.544;2024-01-15T02:51:38;-1.40;99.90
1468;DHT22;727;48.892;9.544;2024-01-15T02:54:05;-1.40;99.90
1468;DHT22;727;48.892;9.544;2024-01-15T02:56:32;-1.30;99.90
1468;DHT22;727;48.892;9.544;2024-01-15T02:59:03;-1.30;99.90
1468;DHT22;727;48.892;9.544;2024-01-15T03:01:30;-1.20;99.90
1468;DHT22;727;48.892;9.544;2024-01-15T03:03:59;-1.20;99.90
1468;DHT22;727;48.892;9.544;2024-01-15T03:06:28;-1.20;99.90
1468;DHT22;727;48.892;9.544;2024-01-15T03:09:02;-1.30;99.90
1468;DHT22;727;48.892;9.544;2024-01-15T03:11:29;-1.30;99.90
1468;DHT22;727;48.892;9.544;2024-01-15T03:14:00;-1.20;99.90
1468;DHT22;727;48.892;9.544;2024-01-15T03:16:28;-1.10;99.90
1468;DHT22;727;48.892;9.544;2024-01-15T03:18:58;-1.20;99.90
1468;DHT22;727;48.892;9.544;2024-01-15T03:21:27;-1.30;99.90
1468;DHT22;727;48.892;9.544;2024-01-15T03:23:54;-1.40;99.90
1468;DHT22;727;48.892;9.544;2024-01-15T03:26:21;-1.40;99.90
1468;DHT22;727;48.892;9.544;2024-01-15T03:28:48;-1.40;99.90
1468;DHT22;727;48.892;9.544;2024-01-15T03:31:14;-1.40;99.90
1468;DHT22;727;48.892;9.544;2024-01-15T03:33:42;-1.40;99.90
1468;DHT22;727;48.892;9.544;2024-01-15T03:36:10;-1.40;99.90
1468;DHT22;727;48.892;9.544;2024-01-15T03:38:40;-1.40;99.90
1468;DHT22;727;48.892;9.544;2024-01-15T03:41:07;-1.30;99.90
1468;DHT22;727;48.892;9.544;2024-01-15T03:43:34;-1.30;99.90
1468;DHT22;727;48.892;9.544;2024-01-15T03:46:01;-1.30;99.90
1468;DHT22;727;48.892;9.544;2024-01-15T03:48:29;-1.30;99.90
1468;DHT22;727;48.892;9.544;2024-01-15T03:50:58;-1.30;99.90
1468;DHT22;727;48.892;9.544;2024-01-15T03:53:24;-1.30;99.90
1468;DHT22;727;48.892;9.544;2024-01-15T03:55:51;-1.20;99.90
1468;DHT22;727;48.892;9.544;2024-01-15T03:58:18;-1.30;99.90
1468;DHT22;727;48.892;9.544;2024-01-15T04:00:45;-1.30;99.90
1468;DHT22;727;48.892;9.544;2024-01-15T04:03:12;-1.20;99.90
1468;DHT22;727;48.892;9.544;2024-01-15T04:05:38;-1.20;99.90
1468;DHT22;727;48.892;9.544;2024-01-15T04:08:07;-1.30;99.90
1468;DHT22;727;48.892;9.544;2024-01-15T04:10:33;-1.30;99.90
1468;DHT22;727;48.892;9.544;2024-01-15T04:13:00;-1.20;99.90
1468;DHT22;727;48.892;9.544;2024-01-15T04:15:29;-1.30;99.90
1468;DHT22;727;48.892;9.544;2024-01-15T04:17:55;-1.20;99.90
1468;DHT22;727;48.892;9.544;2024-01-15T04:20:22;-1.20;99.90
1468;DHT22;727;48.892;9.544;2024-01-15T04:22:49;-1.30;99.90
1468;DHT22;727;48.892;9.544;2024-01-15T04:25:17;-1.30;99.90
1468;DHT22;727;48.892;9.544;2024-01-15T04:27:44;-1.30;99.90
1468;DHT22;727;48.892;9.544;2024-01-15T04:30:11;-1.30;99.90
1468;DHT22;727;48.892;9.544;2024-01-15T04:32:38;-1.40;99.90
1468;DHT22;727;48.892;9.544;2024-01-15T04:35:05;-1.30;99.90
1468;DHT22;727;48.892;9.544;2024-01-15T04:37:32;-1.40;99.90
1468;DHT22;727;48.892;9.544;2024-01-15T04:39:59;-1.40;99.90
1468;DHT22;727;48.892;9.544;2024-01-15T04:42:27;-1.40;99.90
1468;DHT22;727;48.892;9.544;2024-01-15T04:44:54;-1.40;99.90
1468;DHT22;727;48.892;9.544;2024-01-15T04:47:20;-1.40;99.90
1468;DHT22;727;48.892;9.544;2024-01-15T04:49:47;-1.40;99.90
1468;DHT22;727;48.892;9.544;2024-01-15T04:52:14;-1.40;99.90
1468;DHT22;727;48.892;9.544;2024-01-15T04:54:41;-1.30;99.90
1468;DHT22;727;48.892;9.544;2024-01-15T04:57:08;-1.30;99.90
1468;DHT22;727;48.892;9.544;2024-01-15T04:59:36;-1.20;99.90
1468;DHT22;727;48.892;9.544;2024-01-15T05:02:03;-1.30;99.90
1468;DHT22;727;48.892;9.544;2024-01-15T05:04:30;-1.30;99.90
1468;DHT22;727;48.892;9.544;2024-01-15T05:06:56;-1.30;99.90
1468;DHT22;727;48.892;9.544;2024-01-15T05:09:23;-1.30;99.90
1468;DHT22;727;48.892;9.544;2024-01-15T05:11:50;-1.30;99.90
1468;DHT22;727;48.892;9.544;2024-01-15T05:14:16;-1.30;99.90
1468;DHT22;727;48.892;9.544;2024-01-15T05:16:48;-1.30;99.90
1468;DHT22;727;48.892;9.544;2024-01-15T05:19:14;-1.30;99.90
1468;DHT22;727;48.892;9.544;2024-01-15T05:21:41;-1.30;99.90
1468;DHT22;727;48.892;9.544;2024-01-15T05:24:08;-1.30;99.90
1468;DHT22;727;48.892;9.544;2024-01-15T05:26:35;-1.30;99.90
1468;DHT22;727;48.892;9.544;2024-01-15T05:29:01;-1.30;99.90
1468;DHT22;727;48.892;9.544;2024-01-15T05:31:29;-1.20;99.90
1468;DHT22;727;48.892;9.544;2024-01-15T05:33:57;-1.20;99.90
1468;DHT22;727;48.892;9.544;2024-01-15T05:36:24;-1.20;99.90
1468;DHT22;727;48.892;9.544;2024-01-15T05:38:50;-1.20;99.90
1468;DHT22;727;48.892;9.544;2024-01-15T05:41:18;-1.20;99.90
1468;DHT22;727;48.892;9.544;2024-01-15T05:43:44;-1.20;99.90
1468;DHT22;727;48.892;9.544;2024-01-15T05:46:11;-1.20;99.90
1468;DHT22;727;48.892;9.544;2024-01-15T05:48:38;-1.30;99.90
1468;DHT22;727;48.892;9.544;2024-01-15T05:51:06;-1.30;99.90
1468;DHT22;727;48.892;9.544;2024-01-15T05:53:32;-1.20;99.90
1468;DHT22;727;48.892;9.544;2024-01-15T05:55:59;-1.20;99.90
1468;DHT22;727;48.892;9.544;2024-01-15T05:58:26;-1.30;99.90
1468;DHT22;727;48.892;9.544;2024-01-15T06:00:53;-1.20;99.90
1468;DHT22;727;48.892;9.544;2024-01-15T06:03:20;-1.20;99.90
1468;DHT22;727;48.892;9.544;2024-01-15T06:05:46;-1.20;99.90
1468;DHT22;727;48.892;9.544;2024-01-15T06:08:14;-1.20;99.90
1468;DHT22;727;48.892;9.544;2024-01-15T06:10:41;-1.20;99.90
1468;DHT22;727;48.892;9.544;2024-01-15T06:13:08;-1.10;99.90
1468;DHT22;727;48.892;9.544;2024-01-15T06:15:35;-1.20;99.90
1468;DHT22;727;48.892;9.544;2024-01-15T06:18:01;-1.20;99.90
1468;DHT22;727;48.892;9.544;2024-01-15T06:20:28;-1.20;99.90
1468;DHT22;727;48.892;9.544;2024-01-15T06:22:55;-1.10;99.90
1468;DHT22;727;48.892;9.544;2024-01-15T06:25:23;-1.10;99.90
1468;DHT22;727;48.892;9.544;2024-01-15T06:27:50;-1.10;99.90
1468;DHT22;727;48.892;9.544;2024-01-15T06:30:19;-1.10;99.90
1468;DHT22;727;48.892;9.544;2024-01-15T06:32:45;-1.20;99.90
1468;DHT22;727;48.892;9.544;2024-01-15T06:35:12;-1.20;99.90
1468;DHT22;727;48.892;9.544;2024-01-15T06:37:39;-1.10;99.90
1468;DHT22;727;48.892;9.544;2024-01-15T06:40:07;-1.10;99.90
1468;DHT22;727;48.892;9.544;2024-01-15T06:42:35;-1.10;99.90
1468;DHT22;727;48.892;9.544;2024-01-15T06:45:03;-1.10;99.90
1468;DHT22;727;48.892;9.544;2024-01-15T06:47:30;-1.10;99.90
1468;DHT22;727;48.892;9.544;2024-01-15T06:49:57;-1.10;99.90
1468;DHT22;727;48.892;9.544;2024-01-15T06:52:24;-1.10;99.90
1468;DHT22;727;48.892;9.544;2024-01-15T06:54:51;-1.10;99.90
1468;DHT22;727;48.892;9.544;2024-01-15T06:57:18;-1.10;99.90
1468;DHT22;727;48.892;9.544;2024-01-15T06:59:46;-1.10;99.90
1468;DHT22;727;48.892;9.544;2024-01-15T07:02:13;-1.10;99.90
1468;DHT22;727;48.892;9.544;2024-01-15T07:04:40;-1.10;99.90
1468;DHT22;727;48.892;9.544;2024-01-15T07:07:06;-1.10;99.90
1468;DHT22;727;48.892;9.544;2024-01-15T07:09:33;-1.10;99.90
1468;DHT22;727;48.892;9.544;2024-01-15T07:12:00;-1.00;99.90
1468;DHT22;727;48.892;9.544;2024-01-15T07:14:26;-1.00;99.90
1468;DHT22;727;48.892;9.544;2024-01-15T07:16:55;-1.00;99.90
1468;DHT22;727;48.892;9.544;2024-01-15T07:19:21;-1.10;99.90
1468;DHT22;727;48.892;9.544;2024-01-15T07:21:48;-1.10;99.90
1468;DHT22;727;48.892;9.544;2024-01-15T07:24:15;-1.10;99.90
1468;DHT22;727;48.892;9.544;2024-01-15T07:26:42;-1.10;99.90
1468;DHT22;727;48.892;9.544;2024-01-15T07:29:08;-1.00;99.90
1468;DHT22;727;48.892;9.544;2024-01-15T07:31:35;-1.00;99.90
1468;DHT22;727;48.892;9.544;2024-01-15T07:34:03;-1.00;99.90
1468;DHT22;727;48.892;9.544;2024-01-15T07:36:30;-1.00;99.90
1468;DHT22;727;48.892;9.544;2024-01-15T07:38:57;-1.00;99.90
1468;DHT22;727;48.892;9.544;2024-01-15T07:41:23;-1.00;99.90
1468;DHT22;727;48.892;9.544;2024-01-15T07:43:50;-1.00;99.90
1468;DHT22;727;48.892;9.544;2024-01-15T07:46:17;-0.90;99.90
1468;DHT22;727;48.892;9.544;2024-01-15T07:48:43;-0.90;99.90
1468;DHT22;727;48.892;9.544;2024-01-15T07:51:11;-0.80;99.90
1468;DHT22;727;48.892;9.544;2024-01-15T07:53:38;-0.70;99.90
1468;DHT22;727;48.892;9.544;2024-01-15T07:56:05;-0.80;99.90
1468;DHT22;727;48.892;9.544;2024-01-15T07:58:32;-0.70;99.90
1468;DHT22;727;48.892;9.544;2024-01-15T08:00:58;-0.70;99.90
1468;DHT22;727;48.892;9.544;2024-01-15T08:03:25;-0.70;99.90
1468;DHT22;727;48.892;9.544;2024-01-15T08:05:52;-0.70;99.90
1468;DHT22;727;48.892;9.544;2024-01-15T08:08:21;-0.60;99.90
1468;DHT22;727;48.892;9.544;2024-01-15T08:10:48;-0.60;99.90
1468;DHT22;727;48.892;9.544;2024-01-15T08:13:15;-0.60;99.90
1468;DHT22;727;48.892;9.544;2024-01-15T08:15:42;-0.60;99.90
1468;DHT22;727;48.892;9.544;2024-01-15T08:18:08;-0.60;99.90
1468;DHT22;727;48.892;9.544;2024-01-15T08:20:35;-0.60;99.90
1468;DHT22;727;48.892;9.544;2024-01-15T08:23:02;-0.50;99.90
1468;DHT22;727;48.892;9.544;2024-01-15T08:25:31;-0.50;99.90
1468;DHT22;727;48.892;9.544;2024-01-15T08:27:57;-0.50;99.90
1468;DHT22;727;48.892;9.544;2024-01-15T08:30:24;-0.40;99.90
1468;DHT22;727;48.892;9.544;2024-01-15T08:32:53;-0.40;99.90
1468;DHT22;727;48.892;9.544;2024-01-15T08:35:20;-0.30;99.90
1468;DHT22;727;48.892;9.544;2024-01-15T08:37:48;-0.30;99.90
1468;DHT22;727;48.892;9.544;2024-01-15T08:40:15;-0.20;99.90
1468;DHT22;727;48.892;9.544;2024-01-15T08:42:43;-0.20;99.90
1468;DHT22;727;48.892;9.544;2024-01-15T08:45:11;-0.10;99.90
1468;DHT22;727;48.892;9.544;2024-01-15T08:47:38;-0.10;99.90
1468;DHT22;727;48.892;9.544;2024-01-15T08:50:06;0.00;99.90
1468;DHT22;727;48.892;9.544;2024-01-15T08:52:35;0.00;99.90
1468;DHT22;727;48.892;9.544;2024-01-15T08:55:03;0.00;99.90
1468;DHT22;727;48.892;9.544;2024-01-15T08:57:29;0.10;99.90
1468;DHT22;727;48.892;9.544;2024-01-15T08:59:57;0.20;99.90
1468;DHT22;727;48.892;9.544;2024-01-15T09:02:25;0.20;99.90
1468;DHT22;727;48.892;9.544;2024-01-15T09:04:52;0.20;99.90
1468;DHT22;727;48.892;9.544;2024-01-15T09:07:19;0.30;99.90
1468;DHT22;727;48.892;9.544;2024-01-15T09:09:45;0.40;99.90
1468;DHT22;727;48.892;9.544;2024-01-15T09:12:12;0.40;99.90
1468;DHT22;727;48.892;9.544;2024-01-15T09:14:41;0.40;99.90
1468;DHT22;727;48.892;9.544;2024-01-15T09:17:09;0.50;99.90
1468;DHT22;727;48.892;9.544;2024-01-15T09:19:35;0.60;99.90
1468;DHT22;727;48.892;9.544;2024-01-15T09:22:02;0.60;99.90
1468;DHT22;727;48.892;9.544;2024-01-15T09:24:29;0.70;99.90
1468;DHT22;727;48.892;9.544;2024-01-15T09:26:56;0.70;99.90
1468;DHT22;727;48.892;9.544;2024-01-15T09:29:22;0.70;99.90
1468;DHT22;727;48.892;9.544;2024-01-15T09:31:49;0.80;99.90
1468;DHT22;727;48.892;9.544;2024-01-15T09:34:18;0.90;99.90
1468;DHT22;727;48.892;9.544;2024-01-15T09:36:47;0.90;99.90
1468;DHT22;727;48.892;9.544;2024-01-15T09:39:14;1.00;99.90
1468;DHT22;727;48.892;9.544;2024-01-15T09:41:41;1.00;99.90
1468;DHT22;727;48.892;9.544;2024-01-15T09:44:10;1.10;99.90
1468;DHT22;727;48.892;9.544;2024-01-15T09:46:37;1.20;99.90
1468;DHT22;727;48.892;9.544;2024-01-15T09:49:05;1.20;99.90
1468;DHT22;727;48.892;9.544;2024-01-15T09:51:33;1.30;99.90
1468;DHT22;727;48.892;9.544;2024-01-15T09:54:00;1.30;99.90
1468;DHT22;727;48.892;9.544;2024-01-15T09:56:27;1.40;99.90
1468;DHT22;727;48.892;9.544;2024-01-15T09:58:55;1.40;99.90
1468;DHT22;727;48.892;9.544;2024-01-15T10:01:23;1.50;99.90
1468;DHT22;727;48.892;9.544;2024-01-15T10:03:50;1.70;99.90
1468;DHT22;727;48.892;9.544;2024-01-15T10:06:17;1.80;99.90
1468;DHT22;727;48.892;9.544;2024-01-15T10:08:48;1.90;99.90
1468;DHT22;727;48.892;9.544;2024-01-15T10:11:17;2.00;99.90
1468;DHT22;727;48.892;9.544;2024-01-15T10:13:44;2.00;99.90
1468;DHT22;727;48.892;9.544;2024-01-15T10:16:11;2.00;99.90
1468;DHT22;727;48.892;9.544;2024-01-15T10:18:38;2.10;99.90
1468;DHT22;727;48.892;9.544;2024-01-15T10:21:06;2.10;99.90
1468;DHT22;727;48.892;9.544;2024-01-15T10:23:33;2.10;99.90
1468;DHT22;727;48.892;9.544;2024-01-15T10:26:03;2.20;99.90
1468;DHT22;727;48.892;9.544;2024-01-15T10:28:30;2.30;99.80
1468;DHT22;727;48.892;9.544;2024-01-15T10:30:58;2.30;99.90
1468;DHT22;727;48.892;9.544;2024-01-15T10:33:25;2.40;99.50
1468;DHT22;727;48.892;9.544;2024-01-15T10:35:53;2.50;99.00
1468;DHT22;727;48.892;9.544;2024-01-15T10:38:22;2.50;98.10
1468;DHT22;727;48.892;9.544;2024-01-15T10:40:51;2.60;97.70
1468;DHT22;727;48.892;9.544;2024-01-15T10:43:21;2.60;97.70
1468;DHT22;727;48.892;9.544;2024-01-15T10:45:48;2.60;97.70
1468;DHT22;727;48.892;9.544;2024-01-15T10:48:17;2.60;97.80
1468;DHT22;727;48.892;9.544;2024-01-15T10:50:45;2.60;97.70
1468;DHT22;727;48.892;9.544;2024-01-15T10:53:13;2.60;97.60
1468;DHT22;727;48.892;9.544;2024-01-15T10:55:41;2.50;97.50
1468;DHT22;727;48.892;9.544;2024-01-15T10:58:09;2.60;97.50
1468;DHT22;727;48.892;9.544;2024-01-15T11:00:38;2.50;97.60
1468;DHT22;727;48.892;9.544;2024-01-15T11:03:06;2.60;97.50
1468;DHT22;727;48.892;9.544;2024-01-15T11:05:33;2.60;97.30
1468;DHT22;727;48.892;9.544;2024-01-15T11:08:01;2.60;97.10
1468;DHT22;727;48.892;9.544;2024-01-15T11:10:41;2.60;97.20
1468;DHT22;727;48.892;9.544;2024-01-15T11:13:09;2.60;97.20
1468;DHT22;727;48.892;9.544;2024-01-15T11:15:56;2.60;97.30
1468;DHT22;727;48.892;9.544;2024-01-15T11:18:23;2.60;97.30
1468;DHT22;727;48.892;9.544;2024-01-15T11:21:22;2.50;97.60
1468;DHT22;727;48.892;9.544;2024-01-15T11:23:51;2.50;98.30
1468;DHT22;727;48.892;9.544;2024-01-15T11:26:29;2.50;99.00
1468;DHT22;727;48.892;9.544;2024-01-15T11:28:56;2.50;99.90
1468;DHT22;727;48.892;9.544;2024-01-15T11:31:28;2.40;99.90
1468;DHT22;727;48.892;9.544;2024-01-15T11:33:54;2.20;99.90
1468;DHT22;727;48.892;9.544;2024-01-15T11:36:21;2.20;99.90
1468;DHT22;727;48.892;9.544;2024-01-15T11:38:48;2.10;99.90
1468;DHT22;727;48.892;9.544;2024-01-15T11:41:15;2.10;99.90
1468;DHT22;727;48.892;9.544;2024-01-15T11:43:42;2.00;99.90
1468;DHT22;727;48.892;9.544;2024-01-15T11:46:11;2.00;99.90
1468;DHT22;727;48.892;9.544;2024-01-15T11:48:43;1.90;99.90
1468;DHT22;727;48.892;9.544;2024-01-15T11:51:11;1.90;99.90
1468;DHT22;727;48.892;9.544;2024-01-15T11:53:43;1.90;99.90
1468;DHT22;727;48.892;9.544;2024-01-15T11:56:15;1.90;99.90
1468;DHT22;727;48.892;9.544;2024-01-15T11:58:42;1.90;99.90
1468;DHT22;727;48.892;9.544;2024-01-15T12:01:11;2.00;99.90
1468;DHT22;727;48.892;9.544;2024-01-15T12:03:38;2.00;99.90
1468;DHT22;727;48.892;9.544;2024-01-15T12:06:07;1.90;99.90
1468;DHT22;727;48.892;9.544;2024-01-15T12:08:35;2.00;99.90
1468;DHT22;727;48.892;9.544;2024-01-15T12:11:06;2.00;99.90
1468;DHT22;727;48.892;9.544;2024-01-15T12:13:33;1.90;99.90
1468;DHT22;727;48.892;9.544;2024-01-15T12:16:01;1.90;99.90
1468;DHT22;727;48.892;9.544;2024-01-15T12:18:29;1.90;99.90
1468;DHT22;727;48.892;9.544;2024-01-15T12:20:55;1.90;99.90
1468;DHT22;727;48.892;9.544;2024-01-15T12:23:24;1.90;99.90
1468;DHT22;727;48.892;9.544;2024-01-15T12:25:52;1.90;99.90
1468;DHT22;727;48.892;9.544;2024-01-15T12:28:19;1.90;99.90
1468;DHT22;727;48.892;9.544;2024-01-15T12:30:47;2.00;99.90
1468;DHT22;727;48.892;9.544;2024-01-15T12:33:17;1.90;99.90
1468;DHT22;727;48.892;9.544;2024-01-15T12:35:45;1.90;99.90
1468;DHT22;727;48.892;9.544;2024-01-15T12:38:11;1.90;99.90
1468;DHT22;727;48.892;9.544;2024-01-15T12:40:39;1.80;99.90
1468;DHT22;727;48.892;9.544;2024-01-15T12:43:06;1.70;99.90
1468;DHT22;727;48.892;9.544;2024-01-15T12:45:33;1.80;99.90
1468;DHT22;727;48.892;9.544;2024-01-15T12:48:01;1.80;99.90
1468;DHT22;727;48.892;9.544;2024-01-15T12:50:28;1.80;99.90
1468;DHT22;727;48.892;9.544;2024-01-15T12:52:55;1.80;99.90
1468;DHT22;727;48.892;9.544;2024-01-15T12:55:24;1.70;99.90
1468;DHT22;727;48.892;9.544;2024-01-15T12:57:52;1.70;99.90
1468;DHT22;727;48.892;9.544;2024-01-15T13:00:20;1.60;99.90
1468;DHT22;727;48.892;9.544;2024-01-15T13:02:46;1.60;99.90
1468;DHT22;727;48.892;9.544;2024-01-15T13:05:16;1.60;99.90
1468;DHT22;727;48.892;9.544;2024-01-15T13:07:43;1.50;99.90
1468;DHT22;727;48.892;9.544;2024-01-15T13:10:10;1.50;99.90
1468;DHT22;727;48.892;9.544;2024-01-15T13:12:37;1.60;99.90
1468;DHT22;727;48.892;9.544;2024-01-15T13:15:06;1.60;99.90
1468;DHT22;727;48.892;9.544;2024-01-15T13:17:37;1.50;99.90
1468;DHT22;727;48.892;9.544;2024-01-15T13:20:05;1.50;99.90
1468;DHT22;727;48.892;9.544;2024-01-15T13:22:32;1.50;99.90
1468;DHT22;727;48.892;9.544;2024-01-15T13:24:59;1.50;99.90
1468;DHT22;727;48.892;9.544;2024-01-15T13:27:26;1.50;99.90
1468;DHT22;727;48.892;9.544;2024-01-15T13:29:52;1.50;99.90
1468;DHT22;727;48.892;9.544;2024-01-15T13:32:24;1.50;99.90
1468;DHT22;727;48.892;9.544;2024-01-15T13:34:51;1.50;99.90
1468;DHT22;727;48.892;9.544;2024-01-15T13:37:18;1.50;99.90
1468;DHT22;727;48.892;9.544;2024-01-15T13:39:45;1.60;99.90
1468;DHT22;727;48.892;9.544;2024-01-15T13:42:11;1.60;99.90
1468;DHT22;727;48.892;9.544;2024-01-15T13:44:38;1.60;99.90
1468;DHT22;727;48.892;9.544;2024-01-15T13:47:05;1.60;99.90
1468;DHT22;727;48.892;9.544;2024-01-15T13:49:33;1.50;99.90
1468;DHT22;727;48.892;9.544;2024-01-15T13:52:01;1.60;99.90
1468;DHT22;727;48.892;9.544;2024-01-15T13:54:29;1.50;99.90
1468;DHT22;727;48.892;9.544;2024-01-15T13:56:56;1.60;99.90
1468;DHT22;727;48.892;9.544;2024-01-15T13:59:24;1.60;99.90
1468;DHT22;727;48.892;9.544;2024-01-15T14:01:51;1.70;99.90
1468;DHT22;727;48.892;9.544;2024-01-15T14:04:18;1.80;99.90
1468;DHT22;727;48.892;9.544;2024-01-15T14:06:46;1.80;99.90
1468;DHT22;727;48.892;9.544;2024-01-15T14:09:13;1.90;99.90
1468;DHT22;727;48.892;9.544;2024-01-15T14:11:40;1.90;99.90
1468;DHT22;727;48.892;9.544;2024-01-15T14:14:07;1.90;99.90
1468;DHT22;727;48.892;9.544;2024-01-15T14:16:34;1.80;99.90
1468;DHT22;727;48.892;9.544;2024-01-15T14:19:01;1.80;99.90
1468;DHT22;727;48.892;9.544;2024-01-15T14:21:28;1.80;99.90
1468;DHT22;727;48.892;9.544;2024-01-15T14:23:56;1.70;99.90
1468;DHT22;727;48.892;9.544;2024-01-15T14:26:23;1.70;99.90
1468;DHT22;727;48.892;9.544;2024-01-15T14:28:50;1.70;99.90
1468;DHT22;727;48.892;9.544;2024-01-15T14:31:17;1.70;99.90
1468;DHT22;727;48.892;9.544;2024-01-15T14:33:45;1.70;99.90
1468;DHT22;727;48.892;9.544;2024-01-15T14:36:14;1.60;99.90
1468;DHT22;727;48.892;9.544;2024-01-15T14:38:41;1.60;99.90
1468;DHT22;727;48.892;9.544;2024-01-15T14:41:09;1.60;99.90
1468;DHT22;727;48.892;9.544;2024-01-15T14:43:36;1.60;99.90
1468;DHT22;727;48.892;9.544;2024-01-15T14:46:03;1.50;99.90
1468;DHT22;727;48.892;9.544;2024-01-15T14:48:31;1.50;99.90
1468;DHT22;727;48.892;9.544;2024-01-15T14:50:58;1.50;99.90
1468;DHT22;727;48.892;9.544;2024-01-15T14:53:24;1.50;99.90
1468;DHT22;727;48.892;9.544;2024-01-15T14:55:51;1.40;99.90
1468;DHT22;727;48.892;9.544;2024-01-15T14:58:20;1.40;99.90
1468;DHT22;727;48.892;9.544;2024-01-15T15:00:47;1.50;99.90
1468;DHT22;727;48.892;9.544;2024-01-15T15:03:14;1.50;99.90
1468;DHT22;727;48.892;9.544;2024-01-15T15:05:41;1.40;99.90
1468;DHT22;727;48.892;9.544;2024-01-15T15:08:07;1.30;99.90
1468;DHT22;727;48.892;9.544;2024-01-15T15:10:35;1.30;99.90
1468;DHT22;727;48.892;9.544;2024-01-15T15:13:02;1.40;99.90
1468;DHT22;727;48.892;9.544;2024-01-15T15:15:30;1.40;99.90
1468;DHT22;727;48.892;9.544;2024-01-15T15:17:56;1.40;99.90
1468;DHT22;727;48.892;9.544;2024-01-15T15:20:23;1.40;99.90
1468;DHT22;727;48.892;9.544;2024-01-15T15:22:50;1.30;99.90
1468;DHT22;727;48.892;9.544;2024-01-15T15:25:20;1.40;99.90
1468;DHT22;727;48.892;9.544;2024-01-15T15:27:47;1.30;99.90
1468;DHT22;727;48.892;9.544;2024-01-15T15:30:14;1.30;99.90
1468;DHT22;727;48.892;9.544;2024-01-15T15:32:42;1.30;99.90
1468;DHT22;727;48.892;9.544;2024-01-15T15:35:09;1.30;99.90
1468;DHT22;727;48.892;9.544;2024-01-15T15:37:36;1.20;99.90
1468;DHT22;727;48.892;9.544;2024-01-15T15:40:03;1.20;99.90
1468;DHT22;727;48.892;9.544;2024-01-15T15:42:33;1.20;99.90
1468;DHT22;727;48.892;9.544;2024-01-15T15:45:00;1.20;99.90
1468;DHT22;727;48.892;9.544;2024-01-15T15:47:27;1.20;99.90
1468;DHT22;727;48.892;9.544;2024-01-15T15:49:55;1.30;99.90
1468;DHT22;727;48.892;9.544;2024-01-15T15:52:22;1.20;99.90
1468;DHT22;727;48.892;9.544;2024-01-15T15:54:49;1.20;99.90
1468;DHT22;727;48.892;9.544;2024-01-15T15:57:15;1.20;99.90
1468;DHT22;727;48.892;9.544;2024-01-15T15:59:42;1.20;99.90
1468;DHT22;727;48.892;9.544;2024-01-15T16:02:09;1.20;99.90
1468;DHT22;727;48.892;9.544;2024-01-15T16:04:37;1.20;99.90
1468;DHT22;727;48.892;9.544;2024-01-15T16:07:05;1.20;99.90
1468;DHT22;727;48.892;9.544;2024-01-15T16:09:35;1.20;99.90
1468;DHT22;727;48.892;9.544;2024-01-15T16:12:01;1.20;99.90
1468;DHT22;727;48.892;9.544;2024-01-15T16:14:28;1.20;99.90
1468;DHT22;727;48.892;9.544;2024-01-15T16:16:55;1.20;99.90
1468;DHT22;727;48.892;9.544;2024-01-15T16:19:23;1.20;99.90
1468;DHT22;727;48.892;9.544;2024-01-15T16:21:49;1.20;99.90
1468;DHT22;727;48.892;9.544;2024-01-15T16:24:18;1.10;99.90
1468;DHT22;727;48.892;9.544;2024-01-15T16:26:45;1.10;99.90